sensor_id;sensor_type;location;lat;lon;timestamp;temperature;humidity
13115;DHT22;6623;52.120;8.660;2023-07-30T00:01:51;24.60;55.10
13115;DHT22;6623;52.120;8.660;2023-07-30T00:04:17;24.50;55.10
13115;DHT22;6623;52.120;8.660;2023-07-30T00:06:42;24.60;55.10
13115;DHT22;6623;52.120;8.660;2023-07-30T00:09:08;24.60;55.10
13115;DHT22;6623;52.120;8.660;2023-07-30T00:11:33;24.60;55.10
13115;DHT22;6623;52.120;8.660;2023-07-30T00:13:59;24.60;55.20
13115;DHT22;6623;52.120;8.660;2023-07-30T00:16:27;24.60;55.10
13115;DHT22;6623;52.120;8.660;2023-07-30T00:18:53;24.50;55.10
13115;DHT22;6623;52.120;8.660;2023-07-30T00:21:18;24.60;55.20
13115;DHT22;6623;52.120;8.660;2023-07-30T00:23:44;24.50;55.10
13115;DHT22;6623;52.120;8.660;2023-07-30T00:26:09;24.60;55.20
13115;DHT22;6623;52.120;8.660;2023-07-30T00:28:35;24.60;55.10
13115;DHT22;6623;52.120;8.660;2023-07-30T00:31:00;24.60;55.80
13115;DHT22;6623;52.120;8.660;2023-07-30T00:33:26;24.60;55.10
13115;DHT22;6623;52.120;8.660;2023-07-30T00:35:52;24.60;55.10
13115;DHT22;6623;52.120;8.660;2023-07-30T00:38:18;24.60;55.10
13115;DHT22;6623;52.120;8.660;2023-07-30T00:40:44;24.50;55.10
13115;DHT22;6623;52.120;8.660;2023-07-30T00:43:09;24.50;55.10
13115;DHT22;6623;52.120;8.660;2023-07-30T00:45:36;24.60;55.20
13115;DHT22;6623;52.120;8.660;2023-07-30T00:48:02;24.60;55.10
13115;DHT22;6623;52.120;8.660;2023-07-30T00:50:28;24.60;55.10
13115;DHT22;6623;52.120;8.660;2023-07-30T00:52:53;24.60;55.10
13115;DHT22;6623;52.120;8.660;2023-07-30T00:55:19;24.60;55.20
13115;DHT22;6623;52.120;8.660;2023-07-30T00:57:45;24.60;55.20
13115;DHT22;6623;52.120;8.660;2023-07-30T01:00:11;24.60;55.10
13115;DHT22;6623;52.120;8.660;2023-07-30T01:02:37;24.60;55.20
13115;DHT22;6623;52.120;8.660;2023-07-30T01:05:03;24.60;55.10
13115;DHT22;6623;52.120;8.660;2023-07-30T01:07:32;24.60;55.10
13115;DHT22;6623;52.120;8.660;2023-07-30T01:09:59;24.60;55.10
13115;DHT22;6623;52.120;8.660;2023-07-30T01:12:25;24.60;55.10
13115;DHT22;6623;52.120;8.660;2023-07-30T01:14:51;24.60;55.10
13115;DHT22;6623;52.120;8.660;2023-07-30T01:17:18;24.60;55.10
13115;DHT22;6623;52.120;8.660;2023-07-30T01:19:43;24.60;55.10
13115;DHT22;6623;52.120;8.660;2023-07-30T01:22:09;24.60;55.10
13115;DHT22;6623;52.120;8.660;2023-07-30T01:24:34;24.60;55.10
13115;DHT22;6623;52.120;8.660;2023-07-30T01:27:06;24.60;55.20
13115;DHT22;6623;52.120;8.660;2023-07-30T01:29:40;24.60;55.10
13115;DHT22;6623;52.120;8.660;2023-07-30T01:32:08;24.60;55.10
13115;DHT22;6623;52.120;8.660;2023-07-30T01:34:37;24.60;55.10
13115;DHT22;6623;52.120;8.660;2023-07-30T01:37:04;24.60;55.10
13115;DHT22;6623;52.120;8.660;2023-07-30T01:39:31;24.60;55.20
13115;DHT22;6623;52.120;8.660;2023-07-30T01:41:57;24.60;55.10
13115;DHT22;6623;52.120;8.660;2023-07-30T01:44:22;24.60;55.10
13115;DHT22;6623;52.120;8.660;2023-07-30T01:46:48;24.60;55.10
13115;DHT22;6623;52.120;8.660;2023-07-30T01:49:13;24.60;55.10
13115;DHT22;6623;52.120;8.660;2023-07-30T01:51:39;24.60;55.10
13115;DHT22;6623;52.120;8.660;2023-07-30T01:54:04;24.60;55.10
13115;DHT22;6623;52.120;8.660;2023-07-30T01:56:30;24.60;55.10
13115;DHT22;6623;52.120;8.660;2023-07-30T01:58:55;24.60;55.00
13115;DHT22;6623;52.120;8.660;2023-07-30T02:01:21;24.60;55.00
13115;DHT22;6623;52.120;8.660;2023-07-30T02:03:47;24.60;55.10
13115;DHT22;6623;52.120;8.660;2023-07-30T02:06:12;24.60;55.00
13115;DHT22;6623;52.120;8.660;2023-07-30T02:08:38;24.60;55.10
13115;DHT22;6623;52.120;8.660;2023-07-30T02:11:03;24.50;55.00
13115;DHT22;6623;52.120;8.660;2023-07-30T02:13:29;24.60;55.00
13115;DHT22;6623;52.120;8.660;2023-07-30T02:15:55;24.60;55.00
13115;DHT22;6623;52.120;8.660;2023-07-30T02:18:20;24.60;55.00
13115;DHT22;6623;52.120;8.660;2023-07-30T02:20:46;24.60;55.00
13115;DHT22;6623;52.120;8.660;2023-07-30T02:23:13;24.60;55.00
13115;DHT22;6623;52.120;8.660;2023-07-30T02:25:39;24.60;55.00
13115;DHT22;6623;52.120;8.660;2023-07-30T02:28:05;24.60;55.00
13115;DHT22;6623;52.120;8.660;2023-07-30T02:30:30;24.60;55.00
13115;DHT22;6623;52.120;8.660;2023-07-30T02:32:57;24.60;55.00
13115;DHT22;6623;52.120;8.660;2023-07-30T02:35:23;24.60;55.00
13115;DHT22;6623;52.120;8.660;2023-07-30T02:37:48;24.50;54.90
13115;DHT22;6623;52.120;8.660;2023-07-30T02:40:14;24.60;54.90
13115;DHT22;6623;52.120;8.660;2023-07-30T02:42:39;24.60;55.00
13115;DHT22;6623;52.120;8.660;2023-07-30T02:45:05;24.60;55.00
13115;DHT22;6623;52.120;8.660;2023-07-30T02:47:31;24.60;54.90
13115;DHT22;6623;52.120;8.660;2023-07-30T02:49:56;24.60;54.90
13115;DHT22;6623;52.120;8.660;2023-07-30T02:52:22;24.60;54.90
13115;DHT22;6623;52.120;8.660;2023-07-30T02:54:47;24.60;54.90
13115;DHT22;6623;52.120;8.660;2023-07-30T02:57:13;24.60;54.90
13115;DHT22;6623;52.120;8.660;2023-07-30T02:59:39;24.60;54.90
13115;DHT22;6623;52.120;8.660;2023-07-30T03:02:06;24.60;54.90
13115;DHT22;6623;52.120;8.660;2023-07-30T03:04:31;24.60;54.90
13115;DHT22;6623;52.120;8.660;2023-07-30T03:06:57;24.60;54.90
13115;DHT22;6623;52.120;8.660;2023-07-30T03:09:22;24.60;54.90
13115;DHT22;6623;52.120;8.660;2023-07-30T03:11:49;24.60;54.90
13115;DHT22;6623;52.120;8.660;2023-07-30T03:14:15;24.60;54.90
13115;DHT22;6623;52.120;8.660;2023-07-30T03:16:41;24.60;54.90
13115;DHT22;6623;52.120;8.660;2023-07-30T03:19:06;24.60;54.90
13115;DHT22;6623;52.120;8.660;2023-07-30T03:21:32;24.60;54.90
13115;DHT22;6623;52.120;8.660;2023-07-30T03:23:57;24.50;54.80
13115;DHT22;6623;52.120;8.660;2023-07-30T03:26:23;24.50;54.80
13115;DHT22;6623;52.120;8.660;2023-07-30T03:28:48;24.60;54.90
13115;DHT22;6623;52.120;8.660;2023-07-30T03:31:14;24.60;54.90
13115;DHT22;6623;52.120;8.660;2023-07-30T03:33:40;24.50;54.90
13115;DHT22;6623;52.120;8.660;2023-07-30T03:36:10;24.60;54.90
13115;DHT22;6623;52.120;8.660;2023-07-30T03:38:35;24.50;54.80
13115;DHT22;6623;52.120;8.660;2023-07-30T03:41:01;24.60;54.90
13115;DHT22;6623;52.120;8.660;2023-07-30T03:43:26;24.60;54.90
13115;DHT22;6623;52.120;8.660;2023-07-30T03:45:52;24.60;54.80
13115;DHT22;6623;52.120;8.660;2023-07-30T03:48:17;24.60;54.90
13115;DHT22;6623;52.120;8.660;2023-07-30T03:50:43;24.60;54.90
13115;DHT22;6623;52.120;8.660;2023-07-30T03:53:08;24.60;54.80
13115;DHT22;6623;52.120;8.660;2023-07-30T03:55:34;24.60;54.90
13115;DHT22;6623;52.120;8.660;2023-07-30T03:57:59;24.50;54.80
13115;DHT22;6623;52.120;8.660;2023-07-30T04:00:25;24.50;54.80
13115;DHT22;6623;52.120;8.660;2023-07-30T04:02:50;24.60;54.80
13115;DHT22;6623;52.120;8.660;2023-07-30T04:05:16;24.60;54.80
13115;DHT22;6623;52.120;8.660;2023-07-30T04:07:41;24.60;54.80
13115;DHT22;6623;52.120;8.660;2023-07-30T04:10:07;24.60;54.80
13115;DHT22;6623;52.120;8.660;2023-07-30T04:12:33;24.50;54.80
13115;DHT22;6623;52.120;8.660;2023-07-30T04:14:59;24.50;54.80
13115;DHT22;6623;52.120;8.660;2023-07-30T04:17:24;24.60;54.80
13115;DHT22;6623;52.120;8.660;2023-07-30T04:19:50;24.60;54.80
13115;DHT22;6623;52.120;8.660;2023-07-30T04:22:15;24.60;54.80
13115;DHT22;6623;52.120;8.660;2023-07-30T04:24:41;24.60;54.80
13115;DHT22;6623;52.120;8.660;2023-07-30T04:27:07;24.50;54.80
13115;DHT22;6623;52.120;8.660;2023-07-30T04:29:32;24.50;54.80
13115;DHT22;6623;52.120;8.660;2023-07-30T04:31:58;24.50;54.80
13115;DHT22;6623;52.120;8.660;2023-07-30T04:34:23;24.50;54.80
13115;DHT22;6623;52.120;8.660;2023-07-30T04:36:49;24.50;54.70
13115;DHT22;6623;52.120;8.660;2023-07-30T04:39:14;24.60;54.70
13115;DHT22;6623;52.120;8.660;2023-07-30T04:41:40;24.60;54.80
13115;DHT22;6623;52.120;8.660;2023-07-30T04:44:05;24.60;54.70
13115;DHT22;6623;52.120;8.660;2023-07-30T04:46:31;24.60;54.70
13115;DHT22;6623;52.120;8.660;2023-07-30T04:48:58;24.60;54.70
13115;DHT22;6623;52.120;8.660;2023-07-30T04:51:24;24.60;54.80
13115;DHT22;6623;52.120;8.660;2023-07-30T04:53:49;24.60;54.70
13115;DHT22;6623;52.120;8.660;2023-07-30T04:56:15;24.60;54.70
13115;DHT22;6623;52.120;8.660;2023-07-30T04:58:40;24.50;54.70
13115;DHT22;6623;52.120;8.660;2023-07-30T05:01:06;24.60;54.70
13115;DHT22;6623;52.120;8.660;2023-07-30T05:03:31;24.60;54.70
13115;DHT22;6623;52.120;8.660;2023-07-30T05:05:57;24.60;54.70
13115;DHT22;6623;52.120;8.660;2023-07-30T05:08:22;24.60;54.70
13115;DHT22;6623;52.120;8.660;2023-07-30T05:10:48;24.50;54.60
13115;DHT22;6623;52.120;8.660;2023-07-30T05:13:13;24.50;54.60
13115;DHT22;6623;52.120;8.660;2023-07-30T05:15:39;24.50;54.60
13115;DHT22;6623;52.120;8.660;2023-07-30T05:18:04;24.50;54.60
13115;DHT22;6623;52.120;8.660;2023-07-30T05:20:30;24.50;54.50
13115;DHT22;6623;52.120;8.660;2023-07-30T05:22:55;24.60;54.60
13115;DHT22;6623;52.120;8.660;2023-07-30T05:25:21;24.50;54.60
13115;DHT22;6623;52.120;8.660;2023-07-30T05:27:48;24.60;54.60
13115;DHT22;6623;52.120;8.660;2023-07-30T05:30:13;24.50;54.50
13115;DHT22;6623;52.120;8.660;2023-07-30T05:32:39;24.50;54.50
13115;DHT22;6623;52.120;8.660;2023-07-30T05:35:05;24.60;54.60
13115;DHT22;6623;52.120;8.660;2023-07-30T05:37:30;24.60;54.50
13115;DHT22;6623;52.120;8.660;2023-07-30T05:39:56;24.60;54.60
13115;DHT22;6623;52.120;8.660;2023-07-30T05:42:21;24.60;54.60
13115;DHT22;6623;52.120;8.660;2023-07-30T05:44:47;24.60;54.50
13115;DHT22;6623;52.120;8.660;2023-07-30T05:47:13;24.60;54.50
13115;DHT22;6623;52.120;8.660;2023-07-30T05:49:38;24.50;54.50
13115;DHT22;6623;52.120;8.660;2023-07-30T05:52:04;24.60;54.50
13115;DHT22;6623;52.120;8.660;2023-07-30T05:54:30;24.60;54.50
13115;DHT22;6623;52.120;8.660;2023-07-30T05:56:55;24.50;54.50
13115;DHT22;6623;52.120;8.660;2023-07-30T05:59:21;24.50;55.10
13115;DHT22;6623;52.120;8.660;2023-07-30T06:01:46;24.50;54.40
13115;DHT22;6623;52.120;8.660;2023-07-30T06:04:12;24.50;54.40
13115;DHT22;6623;52.120;8.660;2023-07-30T06:06:37;24.50;54.40
13115;DHT22;6623;52.120;8.660;2023-07-30T06:09:03;24.50;54.40
13115;DHT22;6623;52.120;8.660;2023-07-30T06:11:28;24.50;54.40
13115;DHT22;6623;52.120;8.660;2023-07-30T06:13:54;24.50;54.40
13115;DHT22;6623;52.120;8.660;2023-07-30T06:16:19;24.50;54.40
13115;DHT22;6623;52.120;8.660;2023-07-30T06:18:46;24.50;54.40
13115;DHT22;6623;52.120;8.660;2023-07-30T06:21:11;24.50;54.40
13115;DHT22;6623;52.120;8.660;2023-07-30T06:23:37;24.50;54.40
13115;DHT22;6623;52.120;8.660;2023-07-30T06:26:02;24.50;54.40
13115;DHT22;6623;52.120;8.660;2023-07-30T06:28:28;24.50;54.30
13115;DHT22;6623;52.120;8.660;2023-07-30T06:30:53;24.50;54.30
13115;DHT22;6623;52.120;8.660;2023-07-30T06:33:19;24.50;54.30
13115;DHT22;6623;52.120;8.660;2023-07-30T06:35:45;24.50;54.30
13115;DHT22;6623;52.120;8.660;2023-07-30T06:38:10;24.50;54.30
13115;DHT22;6623;52.120;8.660;2023-07-30T06:40:36;24.60;54.40
13115;DHT22;6623;52.120;8.660;2023-07-30T06:43:01;24.50;54.30
13115;DHT22;6623;52.120;8.660;2023-07-30T06:45:27;24.50;54.30
13115;DHT22;6623;52.120;8.660;2023-07-30T06:47:53;24.50;54.30
13115;DHT22;6623;52.120;8.660;2023-07-30T06:50:18;24.50;54.30
13115;DHT22;6623;52.120;8.660;2023-07-30T06:52:44;24.50;54.30
13115;DHT22;6623;52.120;8.660;2023-07-30T06:55:10;24.50;54.30
13115;DHT22;6623;52.120;8.660;2023-07-30T06:57:35;24.50;54.20
13115;DHT22;6623;52.120;8.660;2023-07-30T07:00:02;24.50;54.20
13115;DHT22;6623;52.120;8.660;2023-07-30T07:02:28;24.50;54.20
13115;DHT22;6623;52.120;8.660;2023-07-30T07:04:54;24.50;54.40
13115;DHT22;6623;52.120;8.660;2023-07-30T07:07:20;24.50;54.20
13115;DHT22;6623;52.120;8.660;2023-07-30T07:09:46;24.50;54.20
13115;DHT22;6623;52.120;8.660;2023-07-30T07:12:12;24.50;54.20
13115;DHT22;6623;52.120;8.660;2023-07-30T07:14:37;24.50;54.20
13115;DHT22;6623;52.120;8.660;2023-07-30T07:17:04;24.50;54.10
13115;DHT22;6623;52.120;8.660;2023-07-30T07:19:30;24.50;54.10
13115;DHT22;6623;52.120;8.660;2023-07-30T07:21:56;24.50;54.20
13115;DHT22;6623;52.120;8.660;2023-07-30T07:24:22;24.40;54.10
13115;DHT22;6623;52.120;8.660;2023-07-30T07:26:47;24.50;54.10
13115;DHT22;6623;52.120;8.660;2023-07-30T07:29:13;24.40;54.00
13115;DHT22;6623;52.120;8.660;2023-07-30T07:31:38;24.50;54.10
13115;DHT22;6623;52.120;8.660;2023-07-30T07:34:04;24.40;54.10
13115;DHT22;6623;52.120;8.660;2023-07-30T07:36:29;24.40;54.00
13115;DHT22;6623;52.120;8.660;2023-07-30T07:38:55;24.40;54.00
13115;DHT22;6623;52.120;8.660;2023-07-30T07:41:20;24.50;54.10
13115;DHT22;6623;52.120;8.660;2023-07-30T07:43:47;24.40;54.00
13115;DHT22;6623;52.120;8.660;2023-07-30T07:46:13;24.50;54.10
13115;DHT22;6623;52.120;8.660;2023-07-30T07:48:40;24.50;54.10
13115;DHT22;6623;52.120;8.660;2023-07-30T07:51:06;24.50;54.00
13115;DHT22;6623;52.120;8.660;2023-07-30T07:53:32;24.40;54.00
13115;DHT22;6623;52.120;8.660;2023-07-30T07:55:57;24.50;54.00
13115;DHT22;6623;52.120;8.660;2023-07-30T07:58:23;24.40;54.00
13115;DHT22;6623;52.120;8.660;2023-07-30T08:00:48;24.50;54.00
13115;DHT22;6623;52.120;8.660;2023-07-30T08:03:14;24.50;54.00
13115;DHT22;6623;52.120;8.660;2023-07-30T08:05:40;24.50;53.90
13115;DHT22;6623;52.120;8.660;2023-07-30T08:08:05;24.40;53.90
13115;DHT22;6623;52.120;8.660;2023-07-30T08:10:31;24.40;53.90
13115;DHT22;6623;52.120;8.660;2023-07-30T08:12:57;24.40;53.80
13115;DHT22;6623;52.120;8.660;2023-07-30T08:15:22;24.40;53.90
13115;DHT22;6623;52.120;8.660;2023-07-30T08:17:48;24.40;53.80
13115;DHT22;6623;52.120;8.660;2023-07-30T08:20:13;24.40;53.90
13115;DHT22;6623;52.120;8.660;2023-07-30T08:22:39;24.40;53.90
13115;DHT22;6623;52.120;8.660;2023-07-30T08:25:05;24.40;53.90
13115;DHT22;6623;52.120;8.660;2023-07-30T08:27:30;24.40;53.90
13115;DHT22;6623;52.120;8.660;2023-07-30T08:29:56;24.40;53.90
13115;DHT22;6623;52.120;8.660;2023-07-30T08:32:21;24.40;53.90
13115;DHT22;6623;52.120;8.660;2023-07-30T08:34:47;24.40;53.90
13115;DHT22;6623;52.120;8.660;2023-07-30T08:37:12;24.40;53.90
13115;DHT22;6623;52.120;8.660;2023-07-30T08:39:38;24.40;53.90
13115;DHT22;6623;52.120;8.660;2023-07-30T08:42:04;24.40;53.90
13115;DHT22;6623;52.120;8.660;2023-07-30T08:44:29;24.40;53.90
13115;DHT22;6623;52.120;8.660;2023-07-30T08:46:55;24.40;53.80
13115;DHT22;6623;52.120;8.660;2023-07-30T08:49:20;24.40;53.90
13115;DHT22;6623;52.120;8.660;2023-07-30T08:51:48;24.40;53.80
13115;DHT22;6623;52.120;8.660;2023-07-30T08:54:17;24.40;53.80
13115;DHT22;6623;52.120;8.660;2023-07-30T08:56:43;24.40;53.80
13115;DHT22;6623;52.120;8.660;2023-07-30T08:59:09;24.30;53.70
13115;DHT22;6623;52.120;8.660;2023-07-30T09:01:37;24.40;53.80
13115;DHT22;6623;52.120;8.660;2023-07-30T09:04:09;24.40;54.40
13115;DHT22;6623;52.120;8.660;2023-07-30T09:06:35;24.40;53.80
13115;DHT22;6623;52.120;8.660;2023-07-30T09:09:01;24.40;53.80
13115;DHT22;6623;52.120;8.660;2023-07-30T09:11:28;24.40;53.80
13115;DHT22;6623;52.120;8.660;2023-07-30T09:13:54;24.40;53.80
13115;DHT22;6623;52.120;8.660;2023-07-30T09:16:25;24.40;53.80
13115;DHT22;6623;52.120;8.660;2023-07-30T09:18:51;24.40;53.90
13115;DHT22;6623;52.120;8.660;2023-07-30T09:21:19;24.40;54.10
13115;DHT22;6623;52.120;8.660;2023-07-30T09:23:47;24.40;54.30
13115;DHT22;6623;52.120;8.660;2023-07-30T09:26:13;24.40;54.60
13115;DHT22;6623;52.120;8.660;2023-07-30T09:28:42;24.40;54.70
13115;DHT22;6623;52.120;8.660;2023-07-30T09:31:08;24.40;54.70
13115;DHT22;6623;52.120;8.660;2023-07-30T09:33:34;24.40;54.80
13115;DHT22;6623;52.120;8.660;2023-07-30T09:36:04;24.40;54.70
13115;DHT22;6623;52.120;8.660;2023-07-30T09:38:30;24.40;54.70
13115;DHT22;6623;52.120;8.660;2023-07-30T09:41:02;24.40;54.70
13115;DHT22;6623;52.120;8.660;2023-07-30T09:43:35;24.40;54.70
13115;DHT22;6623;52.120;8.660;2023-07-30T09:46:02;24.40;54.70
13115;DHT22;6623;52.120;8.660;2023-07-30T09:48:30;24.50;54.70
13115;DHT22;6623;52.120;8.660;2023-07-30T09:50:58;24.40;54.70
13115;DHT22;6623;52.120;8.660;2023-07-30T09:53:24;24.40;54.70
13115;DHT22;6623;52.120;8.660;2023-07-30T09:55:50;24.40;54.70
13115;DHT22;6623;52.120;8.660;2023-07-30T09:58:16;24.40;54.60
13115;DHT22;6623;52.120;8.660;2023-07-30T10:00:43;24.50;54.70
13115;DHT22;6623;52.120;8.660;2023-07-30T10:03:10;24.40;54.60
13115;DHT22;6623;52.120;8.660;2023-07-30T10:05:37;24.50;54.70
13115;DHT22;6623;52.120;8.660;2023-07-30T10:08:09;24.50;54.70
13115;DHT22;6623;52.120;8.660;2023-07-30T10:10:36;24.40;54.50
13115;DHT22;6623;52.120;8.660;2023-07-30T10:13:05;24.50;54.60
13115;DHT22;6623;52.120;8.660;2023-07-30T10:15:35;24.50;54.60
13115;DHT22;6623;52.120;8.660;2023-07-30T10:18:02;24.50;54.60
13115;DHT22;6623;52.120;8.660;2023-07-30T10:20:28;24.50;54.60
13115;DHT22;6623;52.120;8.660;2023-07-30T10:22:56;24.50;54.60
13115;DHT22;6623;52.120;8.660;2023-07-30T10:28:06;24.40;54.50
13115;DHT22;6623;52.120;8.660;2023-07-30T10:30:32;24.50;54.60
13115;DHT22;6623;52.120;8.660;2023-07-30T10:33:02;24.50;54.60
13115;DHT22;6623;52.120;8.660;2023-07-30T10:35:35;24.40;54.50
13115;DHT22;6623;52.120;8.660;2023-07-30T10:41:12;24.50;54.50
13115;DHT22;6623;52.120;8.660;2023-07-30T10:43:48;24.50;54.50
13115;DHT22;6623;52.120;8.660;2023-07-30T10:46:15;24.50;54.50
13115;DHT22;6623;52.120;8.660;2023-07-30T10:48:50;24.40;54.50
13115;DHT22;6623;52.120;8.660;2023-07-30T10:51:17;24.50;54.50
13115;DHT22;6623;52.120;8.660;2023-07-30T10:53:44;24.40;54.40
13115;DHT22;6623;52.120;8.660;2023-07-30T10:56:10;24.50;54.50
13115;DHT22;6623;52.120;8.660;2023-07-30T10:58:37;24.50;54.50
13115;DHT22;6623;52.120;8.660;2023-07-30T11:01:06;24.50;54.50
13115;DHT22;6623;52.120;8.660;2023-07-30T11:03:33;24.40;54.40
13115;DHT22;6623;52.120;8.660;2023-07-30T11:06:00;24.50;54.50
13115;DHT22;6623;52.120;8.660;2023-07-30T11:08:36;24.40;54.40
13115;DHT22;6623;52.120;8.660;2023-07-30T11:11:02;24.50;54.50
13115;DHT22;6623;52.120;8.660;2023-07-30T11:13:28;24.50;54.40
13115;DHT22;6623;52.120;8.660;2023-07-30T11:15:54;24.50;54.50
13115;DHT22;6623;52.120;8.660;2023-07-30T11:18:19;24.40;54.40
13115;DHT22;6623;52.120;8.660;2023-07-30T11:20:45;24.50;54.50
13115;DHT22;6623;52.120;8.660;2023-07-30T11:23:21;24.50;54.40
13115;DHT22;6623;52.120;8.660;2023-07-30T11:25:50;24.50;54.40
13115;DHT22;6623;52.120;8.660;2023-07-30T11:28:33;24.40;54.30
13115;DHT22;6623;52.120;8.660;2023-07-30T11:31:00;24.40;54.30
13115;DHT22;6623;52.120;8.660;2023-07-30T11:33:27;24.50;54.40
13115;DHT22;6623;52.120;8.660;2023-07-30T11:35:57;24.40;54.30
13115;DHT22;6623;52.120;8.660;2023-07-30T11:38:27;24.50;54.40
13115;DHT22;6623;52.120;8.660;2023-07-30T11:40:53;24.40;54.30
13115;DHT22;6623;52.120;8.660;2023-07-30T11:43:20;24.40;54.30
13115;DHT22;6623;52.120;8.660;2023-07-30T11:45:46;24.50;54.30
13115;DHT22;6623;52.120;8.660;2023-07-30T11:48:12;24.40;54.30
13115;DHT22;6623;52.120;8.660;2023-07-30T11:50:48;24.40;54.30
13115;DHT22;6623;52.120;8.660;2023-07-30T11:53:14;24.40;54.30
13115;DHT22;6623;52.120;8.660;2023-07-30T11:55:41;24.50;54.30
13115;DHT22;6623;52.120;8.660;2023-07-30T11:58:08;24.50;54.30
13115;DHT22;6623;52.120;8.660;2023-07-30T12:00:38;24.40;54.20
13115;DHT22;6623;52.120;8.660;2023-07-30T12:03:05;24.40;54.20
13115;DHT22;6623;52.120;8.660;2023-07-30T12:05:33;24.40;54.20
13115;DHT22;6623;52.120;8.660;2023-07-30T12:08:02;24.40;54.10
13115;DHT22;6623;52.120;8.660;2023-07-30T12:10:41;24.40;54.10
13115;DHT22;6623;52.120;8.660;2023-07-30T12:13:16;24.40;54.00
13115;DHT22;6623;52.120;8.660;2023-07-30T12:15:55;24.40;54.00
13115;DHT22;6623;52.120;8.660;2023-07-30T12:18:22;24.40;54.00
13115;DHT22;6623;52.120;8.660;2023-07-30T12:20:49;24.40;54.00
13115;DHT22;6623;52.120;8.660;2023-07-30T12:23:19;24.40;54.00
13115;DHT22;6623;52.120;8.660;2023-07-30T12:25:46;24.40;53.90
13115;DHT22;6623;52.120;8.660;2023-07-30T12:28:12;24.40;53.90
13115;DHT22;6623;52.120;8.660;2023-07-30T12:30:37;24.40;53.80
13115;DHT22;6623;52.120;8.660;2023-07-30T12:33:06;24.40;53.80
13115;DHT22;6623;52.120;8.660;2023-07-30T12:35:32;24.40;53.80
13115;DHT22;6623;52.120;8.660;2023-07-30T12:37:59;24.40;53.70
13115;DHT22;6623;52.120;8.660;2023-07-30T12:40:25;24.40;53.70
13115;DHT22;6623;52.120;8.660;2023-07-30T12:42:50;24.40;53.60
13115;DHT22;6623;52.120;8.660;2023-07-30T12:45:16;24.40;53.60
13115;DHT22;6623;52.120;8.660;2023-07-30T12:47:42;24.40;53.50
13115;DHT22;6623;52.120;8.660;2023-07-30T12:50:08;24.40;53.50
13115;DHT22;6623;52.120;8.660;2023-07-30T12:52:34;24.40;53.40
13115;DHT22;6623;52.120;8.660;2023-07-30T12:55:00;24.40;53.30
13115;DHT22;6623;52.120;8.660;2023-07-30T12:57:26;24.40;53.30
13115;DHT22;6623;52.120;8.660;2023-07-30T12:59:52;24.40;53.30
13115;DHT22;6623;52.120;8.660;2023-07-30T13:02:18;24.40;53.30
13115;DHT22;6623;52.120;8.660;2023-07-30T13:04:43;24.40;53.20
13115;DHT22;6623;52.120;8.660;2023-07-30T13:07:09;24.40;53.10
13115;DHT22;6623;52.120;8.660;2023-07-30T13:09:34;24.40;53.10
13115;DHT22;6623;52.120;8.660;2023-07-30T13:12:00;24.40;53.00
13115;DHT22;6623;52.120;8.660;2023-07-30T13:14:25;24.40;53.00
13115;DHT22;6623;52.120;8.660;2023-07-30T13:16:51;24.40;53.00
13115;DHT22;6623;52.120;8.660;2023-07-30T13:19:16;24.30;52.90
13115;DHT22;6623;52.120;8.660;2023-07-30T13:21:42;24.30;52.90
13115;DHT22;6623;52.120;8.660;2023-07-30T13:24:07;24.40;53.00
13115;DHT22;6623;52.120;8.660;2023-07-30T13:26:34;24.30;52.90
13115;DHT22;6623;52.120;8.660;2023-07-30T13:29:00;24.40;53.00
13115;DHT22;6623;52.120;8.660;2023-07-30T13:31:25;24.40;52.90
13115;DHT22;6623;52.120;8.660;2023-07-30T13:33:51;24.30;52.80
13115;DHT22;6623;52.120;8.660;2023-07-30T13:36:17;24.30;52.80
13115;DHT22;6623;52.120;8.660;2023-07-30T13:38:42;24.40;52.80
13115;DHT22;6623;52.120;8.660;2023-07-30T13:41:09;24.40;52.80
13115;DHT22;6623;52.120;8.660;2023-07-30T13:43:35;24.40;52.70
13115;DHT22;6623;52.120;8.660;2023-07-30T13:46:01;24.30;52.70
13115;DHT22;6623;52.120;8.660;2023-07-30T13:48:26;24.40;52.70
13115;DHT22;6623;52.120;8.660;2023-07-30T13:50:52;24.40;52.80
13115;DHT22;6623;52.120;8.660;2023-07-30T13:53:18;24.40;52.70
13115;DHT22;6623;52.120;8.660;2023-07-30T13:55:44;24.30;52.70
13115;DHT22;6623;52.120;8.660;2023-07-30T13:58:10;24.40;52.70
13115;DHT22;6623;52.120;8.660;2023-07-30T14:00:36;24.40;52.80
13115;DHT22;6623;52.120;8.660;2023-07-30T14:03:01;24.40;52.80
13115;DHT22;6623;52.120;8.660;2023-07-30T14:05:27;24.40;52.70
13115;DHT22;6623;52.120;8.660;2023-07-30T14:07:57;24.30;52.70
13115;DHT22;6623;52.120;8.660;2023-07-30T14:10:23;24.40;52.80
13115;DHT22;6623;52.120;8.660;2023-07-30T14:12:49;24.30;52.70
13115;DHT22;6623;52.120;8.660;2023-07-30T14:15:15;24.40;52.70
13115;DHT22;6623;52.120;8.660;2023-07-30T14:17:41;24.40;52.70
13115;DHT22;6623;52.120;8.660;2023-07-30T14:20:07;24.30;52.70
13115;DHT22;6623;52.120;8.660;2023-07-30T14:22:34;24.40;52.70
13115;DHT22;6623;52.120;8.660;2023-07-30T14:24:59;24.40;52.70
13115;DHT22;6623;52.120;8.660;2023-07-30T14:27:25;24.30;52.60
13115;DHT22;6623;52.120;8.660;2023-07-30T14:29:51;24.30;52.60
13115;DHT22;6623;52.120;8.660;2023-07-30T14:32:19;24.40;52.70
13115;DHT22;6623;52.120;8.660;2023-07-30T14:34:44;24.40;52.70
13115;DHT22;6623;52.120;8.660;2023-07-30T14:37:10;24.40;52.70
13115;DHT22;6623;52.120;8.660;2023-07-30T14:39:35;24.40;52.70
13115;DHT22;6623;52.120;8.660;2023-07-30T14:42:01;24.40;52.70
13115;DHT22;6623;52.120;8.660;2023-07-30T14:44:26;24.30;52.60
13115;DHT22;6623;52.120;8.660;2023-07-30T14:46:52;24.30;52.60
13115;DHT22;6623;52.120;8.660;2023-07-30T14:49:17;24.30;52.50
13115;DHT22;6623;52.120;8.660;2023-07-30T14:51:43;24.30;52.50
13115;DHT22;6623;52.120;8.660;2023-07-30T14:54:08;24.30;52.40
13115;DHT22;6623;52.120;8.660;2023-07-30T14:56:35;24.30;52.50
13115;DHT22;6623;52.120;8.660;2023-07-30T14:59:01;24.30;52.40
13115;DHT22;6623;52.120;8.660;2023-07-30T15:01:30;24.30;52.40
13115;DHT22;6623;52.120;8.660;2023-07-30T15:03:56;24.30;52.30
13115;DHT22;6623;52.120;8.660;2023-07-30T15:06:21;24.30;52.30
13115;DHT22;6623;52.120;8.660;2023-07-30T15:08:47;24.30;52.30
13115;DHT22;6623;52.120;8.660;2023-07-30T15:11:14;24.30;52.30
13115;DHT22;6623;52.120;8.660;2023-07-30T15:13:40;24.30;52.30
13115;DHT22;6623;52.120;8.660;2023-07-30T15:16:06;24.30;52.30
13115;DHT22;6623;52.120;8.660;2023-07-30T15:18:32;24.30;52.30
13115;DHT22;6623;52.120;8.660;2023-07-30T15:20:58;24.30;52.30
13115;DHT22;6623;52.120;8.660;2023-07-30T15:23:24;24.30;52.30
13115;DHT22;6623;52.120;8.660;2023-07-30T15:25:49;24.30;52.20
13115;DHT22;6623;52.120;8.660;2023-07-30T15:28:16;24.30;52.30
13115;DHT22;6623;52.120;8.660;2023-07-30T15:30:42;24.30;52.20
13115;DHT22;6623;52.120;8.660;2023-07-30T15:33:08;24.30;52.20
13115;DHT22;6623;52.120;8.660;2023-07-30T15:35:34;24.30;52.20
13115;DHT22;6623;52.120;8.660;2023-07-30T15:38:00;24.30;52.20
13115;DHT22;6623;52.120;8.660;2023-07-30T15:40:25;24.30;52.10
13115;DHT22;6623;52.120;8.660;2023-07-30T15:42:51;24.30;52.10
13115;DHT22;6623;52.120;8.660;2023-07-30T15:45:16;24.30;52.10